createdAt,value
2018-11-21T00:02:05.571Z,4.00
2018-11-21T00:04:34.117Z,4.10
2018-11-21T00:07:02.949Z,4.10
2018-11-21T00:09:31.435Z,4.10
2018-11-21T00:12:00.359Z,4.10
2018-11-21T00:14:28.864Z,4.20
2018-11-21T00:16:57.905Z,4.20
2018-11-21T00:19:26.404Z,4.10
2018-11-21T00:21:55.161Z,4.20
2018-11-21T00:24:23.699Z,4.20
2018-11-21T00:26:52.435Z,4.20
2018-11-21T00:29:20.941Z,4.20
2018-11-21T00:31:49.833Z,4.20
2018-11-21T00:34:18.392Z,4.20
2018-11-21T00:36:47.204Z,4.20
2018-11-21T00:39:15.655Z,4.20
2018-11-21T00:41:44.343Z,4.20
2018-11-21T00:44:13.562Z,4.20
2018-11-21T00:46:42.350Z,4.20
2018-11-21T00:49:10.836Z,4.20
2018-11-21T00:51:39.515Z,4.20
2018-11-21T00:54:08.069Z,4.20
2018-11-21T00:56:37.081Z,4.20
2018-11-21T00:59:05.652Z,4.20
2018-11-21T01:01:36.238Z,4.20
2018-11-21T01:04:11.091Z,4.20
2018-11-21T01:06:39.664Z,4.20
2018-11-21T01:09:09.237Z,4.10
2018-11-21T01:11:37.993Z,4.10
2018-11-21T01:14:06.570Z,4.10
2018-11-21T01:16:35.577Z,4.10
2018-11-21T01:19:04.071Z,4.10
2018-11-21T01:21:33.434Z,4.10
2018-11-21T01:24:02.025Z,4.20
2018-11-21T01:26:30.729Z,4.20
2018-11-21T01:28:59.225Z,4.20
2018-11-21T01:31:28.330Z,4.20
2018-11-21T01:33:56.921Z,4.20
2018-11-21T01:36:26.072Z,4.20
2018-11-21T01:38:54.789Z,4.10
2018-11-21T01:41:23.270Z,4.10
2018-11-21T01:43:52.629Z,4.10
2018-11-21T01:46:21.336Z,4.10
2018-11-21T01:48:50.344Z,4.10
2018-11-21T01:51:18.919Z,4.10
2018-11-21T01:53:47.900Z,4.00
2018-11-21T01:56:16.419Z,4.10
2018-11-21T01:58:46.798Z,4.10
2018-11-21T02:01:15.704Z,4.00
2018-11-21T02:03:44.506Z,4.10
2018-11-21T02:06:13.088Z,4.10
2018-11-21T02:08:42.161Z,4.10
2018-11-21T02:11:10.808Z,4.10
2018-11-21T02:13:40.580Z,4.10
2018-11-21T02:16:09.664Z,4.10
2018-11-21T02:18:41.228Z,4.10
2018-11-21T02:21:09.914Z,4.10
2018-11-21T02:23:38.892Z,4.10
2018-11-21T02:26:07.776Z,4.10
2018-11-21T02:28:39.346Z,4.10
2018-11-21T02:31:09.846Z,4.10
2018-11-21T02:33:38.364Z,4.10
2018-11-21T02:36:08.265Z,4.10
2018-11-21T02:38:37.053Z,4.10
2018-11-21T02:41:07.679Z,4.10
2018-11-21T02:43:35.352Z,4.10
2018-11-21T02:46:03.855Z,4.10
2018-11-21T02:48:32.339Z,4.10
2018-11-21T02:51:01.396Z,4.10
2018-11-21T02:53:29.938Z,4.10
2018-11-21T02:55:58.790Z,4.10
2018-11-21T02:58:27.324Z,4.10
2018-11-21T03:00:56.343Z,4.10
2018-11-21T03:03:24.975Z,4.10
2018-11-21T03:05:53.734Z,4.10
2018-11-21T03:08:22.301Z,4.10
2018-11-21T03:10:51.094Z,4.00
2018-11-21T03:13:26.897Z,4.00
2018-11-21T03:15:48.676Z,4.00
2018-11-21T03:18:17.178Z,4.10
2018-11-21T03:20:45.832Z,4.00
2018-11-21T03:23:14.345Z,4.00
2018-11-21T03:25:42.999Z,4.10
2018-11-21T03:28:11.481Z,4.00
2018-11-21T03:30:40.581Z,4.00
2018-11-21T03:33:09.153Z,4.00
2018-11-21T03:35:37.977Z,4.00
2018-11-21T03:38:06.444Z,3.90
2018-11-21T03:40:35.121Z,3.90
2018-11-21T03:43:03.674Z,3.90
2018-11-21T03:45:32.854Z,3.90
2018-11-21T03:48:01.337Z,3.90
2018-11-21T03:50:30.156Z,3.90
2018-11-21T03:52:58.594Z,3.90
2018-11-21T03:55:27.227Z,3.90
2018-11-21T03:57:55.718Z,4.00
2018-11-21T04:00:24.397Z,4.00
2018-11-21T04:02:53.186Z,4.00
2018-11-21T04:05:21.987Z,4.00
2018-11-21T04:07:50.474Z,4.00
2018-11-21T04:10:19.558Z,4.00
2018-11-21T04:12:48.024Z,4.00
2018-11-21T04:15:16.714Z,4.00
2018-11-21T04:17:45.227Z,4.00
2018-11-21T04:20:13.881Z,4.00
2018-11-21T04:22:42.372Z,4.00
2018-11-21T04:25:12.281Z,4.00
2018-11-21T04:27:40.951Z,4.00
2018-11-21T04:30:11.491Z,4.00
2018-11-21T04:32:39.980Z,4.00
2018-11-21T04:35:09.481Z,4.00
2018-11-21T04:37:37.968Z,4.00
2018-11-21T04:40:07.673Z,4.00
2018-11-21T04:42:36.413Z,4.00
2018-11-21T04:45:06.476Z,4.00
2018-11-21T04:47:34.948Z,4.00
2018-11-21T04:50:03.838Z,4.00
2018-11-21T04:52:32.309Z,4.00
2018-11-21T04:55:01.009Z,4.00
2018-11-21T04:57:29.484Z,4.00
2018-11-21T04:59:58.314Z,4.00
2018-11-21T05:02:26.740Z,4.00
2018-11-21T05:04:55.344Z,4.00
2018-11-21T05:07:23.824Z,4.00
2018-11-21T05:09:52.299Z,4.00
2018-11-21T05:12:21.188Z,4.00
2018-11-21T05:14:49.674Z,3.90
2018-11-21T05:17:18.397Z,4.00
2018-11-21T05:19:46.878Z,4.00
2018-11-21T05:22:15.483Z,3.90
2018-11-21T05:24:44.218Z,4.00
2018-11-21T05:27:12.900Z,3.90
2018-11-21T05:29:43.724Z,4.00
2018-11-21T05:32:12.219Z,4.00
2018-11-21T05:34:41.231Z,3.90
2018-11-21T05:37:10.102Z,3.90
2018-11-21T05:39:38.622Z,3.90
2018-11-21T05:42:07.473Z,3.90
2018-11-21T05:44:36.503Z,3.90
2018-11-21T05:47:05.266Z,3.90
2018-11-21T05:49:33.863Z,3.90
2018-11-21T05:52:02.631Z,3.90
2018-11-21T05:54:31.105Z,3.90
2018-11-21T05:56:59.930Z,3.90
2018-11-21T05:59:30.045Z,3.80
2018-11-21T06:01:58.742Z,3.80
2018-11-21T06:04:27.191Z,3.80
2018-11-21T06:06:55.870Z,3.90
2018-11-21T06:09:24.331Z,3.80
2018-11-21T06:11:53.233Z,3.80
2018-11-21T06:14:21.723Z,3.80
2018-11-21T06:16:50.413Z,3.80
2018-11-21T06:19:18.899Z,3.80
2018-11-21T06:21:47.569Z,3.80
2018-11-21T06:24:16.135Z,3.80
2018-11-21T06:26:48.308Z,3.90
2018-11-21T06:29:16.772Z,3.90
2018-11-21T06:31:46.800Z,3.80
2018-11-21T06:34:15.271Z,3.80
2018-11-21T06:36:43.991Z,3.80
2018-11-21T06:39:12.484Z,3.80
2018-11-21T06:41:41.768Z,3.80
2018-11-21T06:44:10.777Z,3.80
2018-11-21T06:46:40.055Z,3.80
2018-11-21T06:49:08.829Z,3.90
2018-11-21T06:51:37.469Z,3.90
2018-11-21T06:54:07.637Z,3.80
2018-11-21T06:59:05.539Z,3.90
2018-11-21T07:01:34.049Z,3.90
2018-11-21T07:04:03.993Z,3.90
2018-11-21T07:06:31.260Z,3.90
2018-11-21T07:09:00.082Z,3.90
2018-11-21T07:11:28.967Z,3.90
2018-11-21T07:13:57.471Z,3.90
2018-11-21T07:16:26.337Z,3.90
2018-11-21T07:18:54.848Z,3.90
2018-11-21T07:21:23.510Z,3.90
2018-11-21T07:23:51.985Z,3.90
2018-11-21T07:26:20.775Z,3.90
2018-11-21T07:28:49.266Z,3.90
2018-11-21T07:31:17.939Z,4.00
2018-11-21T07:33:47.821Z,4.00
2018-11-21T07:36:17.057Z,3.90
2018-11-21T07:38:45.547Z,3.90
2018-11-21T07:41:14.615Z,3.90
2018-11-21T07:43:43.094Z,3.90
2018-11-21T07:46:12.505Z,3.80
2018-11-21T07:48:41.021Z,3.90
2018-11-21T07:51:09.772Z,3.90
2018-11-21T07:53:38.408Z,3.90
2018-11-21T07:56:59.275Z,4.00
2018-11-21T07:59:27.936Z,4.00
2018-11-21T08:02:03.621Z,4.00
2018-11-21T08:04:57.071Z,4.00
2018-11-21T08:07:34.792Z,4.10
2018-11-21T08:10:28.392Z,4.00
2018-11-21T08:13:22.531Z,4.00
2018-11-21T08:16:16.415Z,4.00
2018-11-21T08:18:56.764Z,4.00
2018-11-21T08:21:56.343Z,4.10
2018-11-21T08:24:44.386Z,4.10
2018-11-21T08:27:32.299Z,4.10
2018-11-21T08:30:01.409Z,4.10
2018-11-21T08:32:29.869Z,4.10
2018-11-21T08:35:01.799Z,4.20
2018-11-21T08:37:30.379Z,4.20
2018-11-21T08:39:59.162Z,4.20
2018-11-21T08:42:27.771Z,4.20
2018-11-21T08:44:56.739Z,4.30
2018-11-21T08:47:25.461Z,4.30
2018-11-21T08:49:54.933Z,4.30
2018-11-21T08:52:25.788Z,4.30
2018-11-21T08:54:54.761Z,4.30
2018-11-21T08:57:23.266Z,4.20
2018-11-21T08:59:52.139Z,4.20
2018-11-21T09:02:20.654Z,4.20
2018-11-21T09:04:49.517Z,4.20
2018-11-21T09:07:17.980Z,4.20
2018-11-21T09:09:46.881Z,4.20
2018-11-21T09:12:15.563Z,4.20
2018-11-21T09:14:44.854Z,4.20
2018-11-21T09:17:13.497Z,4.20
2018-11-21T09:19:42.226Z,4.20
2018-11-21T09:22:10.923Z,4.20
2018-11-21T09:24:39.426Z,4.20
2018-11-21T09:27:08.295Z,4.20
2018-11-21T09:29:37.305Z,4.20
2018-11-21T09:32:05.795Z,4.20
2018-11-21T09:34:35.488Z,4.30
2018-11-21T09:37:03.981Z,4.30
2018-11-21T09:39:32.900Z,4.30
2018-11-21T09:42:01.523Z,4.30
2018-11-21T09:44:30.418Z,4.30
2018-11-21T09:46:58.909Z,4.30
2018-11-21T09:49:27.879Z,4.30
2018-11-21T09:51:56.409Z,4.30
2018-11-21T09:54:25.264Z,4.30
2018-11-21T09:56:53.778Z,4.30
2018-11-21T09:59:23.140Z,4.30
2018-11-21T10:02:27.855Z,4.40
2018-11-21T10:04:56.872Z,4.40
2018-11-21T10:07:25.385Z,4.40
2018-11-21T10:09:54.329Z,4.50
2018-11-21T10:12:22.837Z,4.50
2018-11-21T10:14:51.639Z,4.50
2018-11-21T10:17:20.210Z,4.50
2018-11-21T10:19:48.991Z,4.50
2018-11-21T10:22:17.729Z,4.50
2018-11-21T10:24:46.357Z,4.50
2018-11-21T10:27:14.885Z,4.60
2018-11-21T10:29:43.938Z,4.60
2018-11-21T10:32:12.493Z,4.60
2018-11-21T10:34:42.341Z,4.70
2018-11-21T10:37:10.888Z,4.70
2018-11-21T10:39:39.705Z,4.70
2018-11-21T10:42:08.241Z,4.80
2018-11-21T10:44:36.869Z,4.80
2018-11-21T10:47:05.672Z,4.80
2018-11-21T10:49:35.060Z,4.80
2018-11-21T10:52:03.598Z,4.70
2018-11-21T10:54:32.638Z,4.70
2018-11-21T10:57:01.113Z,4.80
2018-11-21T10:59:29.803Z,4.70
2018-11-21T11:02:22.941Z,4.70
2018-11-21T11:04:59.129Z,4.60
2018-11-21T11:07:58.715Z,4.70
2018-11-21T11:10:45.090Z,4.70
2018-11-21T11:13:35.249Z,4.70
2018-11-21T11:16:17.738Z,4.70
2018-11-21T11:19:13.503Z,4.70
2018-11-21T11:22:16.020Z,4.70
2018-11-21T11:25:04.191Z,4.70
2018-11-21T11:27:50.529Z,4.70
2018-11-21T11:30:36.431Z,4.70
2018-11-21T11:33:18.759Z,4.70
2018-11-21T11:36:16.374Z,4.70
2018-11-21T11:39:19.209Z,4.70
2018-11-21T11:42:00.896Z,4.70
2018-11-21T11:44:43.018Z,4.70
2018-11-21T11:47:29.047Z,4.70
2018-11-21T11:50:20.111Z,4.70
2018-11-21T11:52:58.847Z,4.70
2018-11-21T11:55:55.788Z,4.70
2018-11-21T11:58:34.098Z,4.70
2018-11-21T12:01:21.199Z,4.70
2018-11-21T12:04:27.300Z,4.70
2018-11-21T12:07:16.808Z,4.70
2018-11-21T12:10:03.100Z,4.80
2018-11-21T12:13:00.225Z,4.80
2018-11-21T12:15:46.813Z,4.80
2018-11-21T12:18:40.172Z,4.80
2018-11-21T12:21:27.025Z,4.80
2018-11-21T12:24:08.212Z,4.80
2018-11-21T12:26:46.588Z,4.70
2018-11-21T12:29:32.884Z,4.70
2018-11-21T12:32:12.054Z,4.70
2018-11-21T12:35:08.621Z,4.70
2018-11-21T12:38:16.657Z,4.70
2018-11-21T12:41:07.249Z,4.70
2018-11-21T12:43:57.830Z,4.70
2018-11-21T12:46:45.687Z,4.70
2018-11-21T12:49:32.949Z,4.70
2018-11-21T12:52:30.000Z,4.70
2018-11-21T12:55:21.487Z,4.70
2018-11-21T12:58:00.307Z,4.70
2018-11-21T13:00:53.873Z,4.70
2018-11-21T13:03:47.742Z,4.70
2018-11-21T13:06:29.952Z,4.70
2018-11-21T13:09:16.038Z,4.70
2018-11-21T13:12:08.082Z,4.70
2018-11-21T13:15:01.912Z,4.70
2018-11-21T13:17:59.130Z,4.80
2018-11-21T13:20:52.766Z,4.80
2018-11-21T13:23:33.005Z,4.80
2018-11-21T13:26:19.450Z,4.80
2018-11-21T13:29:05.570Z,4.70
2018-11-21T13:32:02.897Z,4.70
2018-11-21T13:34:47.545Z,4.70
2018-11-21T13:37:38.611Z,4.70
2018-11-21T13:40:47.096Z,4.70
2018-11-21T13:43:37.981Z,4.70
2018-11-21T13:46:29.552Z,4.70
2018-11-21T13:49:17.215Z,4.60
2018-11-21T13:52:17.871Z,4.60
2018-11-21T13:54:57.525Z,4.60
2018-11-21T13:57:26.203Z,4.50
2018-11-21T13:59:54.954Z,4.50
2018-11-21T14:02:24.679Z,4.60
2018-11-21T14:04:55.637Z,4.60
2018-11-21T14:07:24.844Z,4.60
2018-11-21T14:09:53.333Z,4.50
2018-11-21T14:12:22.414Z,4.60
2018-11-21T14:14:50.910Z,4.50
2018-11-21T14:17:19.635Z,4.50
2018-11-21T14:19:48.080Z,4.50
2018-11-21T14:22:16.957Z,4.50
2018-11-21T14:24:45.496Z,4.40
2018-11-21T14:27:14.484Z,4.40
2018-11-21T14:29:42.961Z,4.40
2018-11-21T14:32:11.705Z,4.40
2018-11-21T14:34:40.368Z,4.40
2018-11-21T14:37:08.892Z,4.40
2018-11-21T14:39:37.736Z,4.50
2018-11-21T14:42:08.454Z,4.50
2018-11-21T14:44:35.320Z,4.50
2018-11-21T14:47:05.052Z,4.50
2018-11-21T14:49:33.537Z,4.50
2018-11-21T14:52:02.424Z,4.50
2018-11-21T14:54:31.095Z,4.50
2018-11-21T14:56:59.989Z,4.50
2018-11-21T14:59:28.475Z,4.50
2018-11-21T15:01:57.357Z,4.50
2018-11-21T15:04:25.890Z,4.50
2018-11-21T15:06:54.750Z,4.50
2018-11-21T15:09:23.395Z,4.50
2018-11-21T15:11:53.150Z,4.50
2018-11-21T15:14:21.672Z,4.50
2018-11-21T15:16:50.505Z,4.60
2018-11-21T15:19:19.995Z,4.50
2018-11-21T15:21:48.756Z,4.50
2018-11-21T15:24:17.342Z,4.60
2018-11-21T15:26:46.187Z,4.50
2018-11-21T15:29:14.676Z,4.50
2018-11-21T15:31:43.333Z,4.50
2018-11-21T15:34:11.866Z,4.50
2018-11-21T15:36:40.797Z,4.50
2018-11-21T15:39:10.920Z,4.40
2018-11-21T15:41:39.983Z,4.50
2018-11-21T15:44:08.826Z,4.40
2018-11-21T15:46:37.628Z,4.40
2018-11-21T15:49:09.923Z,4.40
2018-11-21T15:51:40.616Z,4.40
2018-11-21T15:54:09.573Z,4.40
2018-11-21T15:56:39.799Z,4.30
2018-11-21T15:59:08.314Z,4.30
2018-11-21T16:01:39.946Z,4.30
2018-11-21T16:04:08.446Z,4.40
2018-11-21T16:06:37.022Z,4.40
2018-11-21T16:09:10.870Z,4.40
2018-11-21T16:11:39.479Z,4.40
2018-11-21T16:14:07.980Z,4.40
2018-11-21T16:16:36.590Z,4.40
2018-11-21T16:19:05.288Z,4.40
2018-11-21T16:21:33.781Z,4.40
2018-11-21T16:24:02.642Z,4.40
2018-11-21T16:26:31.318Z,4.40
2018-11-21T16:29:00.210Z,4.40
2018-11-21T16:31:28.938Z,4.40
2018-11-21T16:33:57.624Z,4.40
2018-11-21T16:36:27.282Z,4.40
2018-11-21T16:38:55.168Z,4.40
2018-11-21T16:41:28.050Z,4.40
2018-11-21T16:43:56.912Z,4.40
2018-11-21T16:46:25.483Z,4.40
2018-11-21T16:48:54.418Z,4.40
2018-11-21T16:51:23.278Z,4.40
2018-11-21T16:53:52.400Z,4.40
2018-11-21T16:56:21.288Z,4.40
2018-11-21T16:58:50.202Z,4.30
2018-11-21T17:01:18.764Z,4.30
2018-11-21T17:03:47.730Z,4.30
2018-11-21T17:06:16.257Z,4.30
2018-11-21T17:08:45.727Z,4.30
2018-11-21T17:11:14.271Z,4.30
2018-11-21T17:13:43.130Z,4.30
2018-11-21T17:16:11.811Z,4.30
2018-11-21T17:18:40.672Z,4.30
2018-11-21T17:21:09.189Z,4.30
2018-11-21T17:23:38.051Z,4.30
2018-11-21T17:26:06.749Z,4.30
2018-11-21T17:28:35.427Z,4.40
2018-11-21T17:31:03.942Z,4.40
2018-11-21T17:33:32.992Z,4.30
2018-11-21T17:36:01.509Z,4.30
2018-11-21T17:38:49.618Z,4.30
2018-11-21T17:41:18.210Z,4.40
2018-11-21T17:43:47.058Z,4.40
2018-11-21T17:46:15.577Z,4.30
2018-11-21T17:48:44.789Z,4.30
2018-11-21T17:51:13.321Z,4.30
2018-11-21T17:53:42.137Z,4.30
2018-11-21T17:56:13.089Z,4.30
2018-11-21T17:58:41.999Z,4.30
2018-11-21T18:01:10.498Z,4.40
2018-11-21T18:03:39.566Z,4.30
2018-11-21T18:06:08.105Z,4.30
2018-11-21T18:08:37.346Z,4.30
2018-11-21T18:11:06.373Z,4.40
2018-11-21T18:13:36.150Z,4.40
2018-11-21T18:16:04.695Z,4.40
2018-11-21T18:18:33.519Z,4.40
2018-11-21T18:21:02.035Z,4.40
2018-11-21T18:23:31.099Z,4.40
2018-11-21T18:25:59.710Z,4.40
2018-11-21T18:28:28.864Z,4.40
2018-11-21T18:30:57.461Z,4.40
2018-11-21T18:33:26.670Z,4.30
2018-11-21T18:35:55.187Z,4.30
2018-11-21T18:38:24.025Z,4.30
2018-11-21T18:40:53.122Z,4.30
2018-11-21T18:43:22.020Z,4.30
2018-11-21T18:45:51.483Z,4.30
2018-11-21T18:48:20.833Z,4.30
2018-11-21T18:50:49.545Z,4.30
2018-11-21T18:53:18.401Z,4.30
2018-11-21T18:55:52.500Z,4.30
2018-11-21T18:58:39.642Z,4.30
2018-11-21T19:01:08.215Z,4.30
2018-11-21T19:03:37.207Z,4.30
2018-11-21T19:06:05.915Z,4.30
2018-11-21T19:08:34.724Z,4.30
2018-11-21T19:11:03.299Z,4.30
2018-11-21T19:13:32.278Z,4.30
2018-11-21T19:16:01.265Z,4.30
2018-11-21T19:18:29.852Z,4.30
2018-11-21T19:20:58.890Z,4.30
2018-11-21T19:23:27.495Z,4.30
2018-11-21T19:25:56.409Z,4.30
2018-11-21T19:28:25.072Z,4.40
2018-11-21T19:30:53.761Z,4.40
2018-11-21T19:33:22.293Z,4.40
2018-11-21T19:35:52.811Z,4.40
2018-11-21T19:38:22.288Z,4.40
2018-11-21T19:40:50.875Z,4.40
2018-11-21T19:43:20.225Z,4.40
2018-11-21T19:45:48.737Z,4.40
2018-11-21T19:48:17.290Z,4.40
2018-11-21T19:50:46.537Z,4.40
2018-11-21T19:53:15.241Z,4.40
2018-11-21T19:55:45.327Z,4.40
2018-11-21T19:58:14.017Z,4.30
2018-11-21T20:00:42.803Z,4.30
2018-11-21T20:03:16.543Z,4.30
2018-11-21T20:05:45.664Z,4.30
2018-11-21T20:08:17.025Z,4.30
2018-11-21T20:10:45.871Z,4.30
2018-11-21T20:13:16.418Z,4.40
2018-11-21T20:15:45.219Z,4.40
2018-11-21T20:18:14.037Z,4.40
2018-11-21T20:20:43.233Z,4.40
2018-11-21T20:23:11.802Z,4.40
2018-11-21T20:25:40.614Z,4.40
2018-11-21T20:28:09.143Z,4.40
2018-11-21T20:30:39.131Z,4.40
2018-11-21T20:33:07.936Z,4.40
2018-11-21T20:35:37.197Z,4.40
2018-11-21T20:38:06.854Z,4.40
2018-11-21T20:40:36.682Z,4.40
2018-11-21T20:43:05.711Z,4.30
2018-11-21T20:45:34.618Z,4.30
2018-11-21T20:48:03.489Z,4.40
2018-11-21T20:50:32.411Z,4.40
2018-11-21T20:53:00.897Z,4.40
2018-11-21T20:55:31.234Z,4.40
2018-11-21T20:57:59.791Z,4.40
2018-11-21T21:00:30.205Z,4.40
2018-11-21T21:02:58.886Z,4.40
2018-11-21T21:05:27.767Z,4.40
2018-11-21T21:07:56.687Z,4.40
2018-11-21T21:10:27.007Z,4.40
2018-11-21T21:12:55.487Z,4.40
2018-11-21T21:15:24.367Z,4.40
2018-11-21T21:17:53.064Z,4.30
2018-11-21T21:20:23.181Z,4.30
2018-11-21T21:22:53.075Z,4.30
2018-11-21T21:25:23.567Z,4.30
2018-11-21T21:27:52.145Z,4.30
2018-11-21T21:30:22.854Z,4.30
2018-11-21T21:32:51.540Z,4.30
2018-11-21T21:35:21.439Z,4.30
2018-11-21T21:37:49.981Z,4.40
2018-11-21T21:40:20.334Z,4.40
2018-11-21T21:42:49.135Z,4.40
2018-11-21T21:45:21.776Z,4.30
2018-11-21T21:47:50.293Z,4.30
2018-11-21T21:50:21.899Z,4.20
2018-11-21T21:52:50.423Z,4.20
2018-11-21T21:55:20.375Z,4.30
2018-11-21T21:57:48.894Z,4.20
2018-11-21T22:00:22.250Z,4.20
2018-11-21T22:02:51.495Z,4.20
2018-11-21T22:05:20.407Z,4.10
2018-11-21T22:07:48.975Z,4.20
2018-11-21T22:10:18.966Z,4.20
2018-11-21T22:12:47.807Z,4.20
2018-11-21T22:15:23.191Z,4.20
2018-11-21T22:17:52.125Z,4.20
2018-11-21T22:20:20.944Z,4.20
2018-11-21T22:22:50.212Z,4.20
2018-11-21T22:25:19.831Z,4.20
2018-11-21T22:27:48.384Z,4.20
2018-11-21T22:30:17.971Z,4.30
2018-11-21T22:32:47.936Z,4.20
2018-11-21T22:35:18.806Z,4.20
2018-11-21T22:37:51.129Z,4.20
2018-11-21T22:40:16.338Z,4.30
2018-11-21T22:42:46.082Z,4.30
2018-11-21T22:45:16.797Z,4.30
2018-11-21T22:47:45.503Z,4.30
2018-11-21T22:50:15.787Z,4.30
2018-11-21T22:52:44.903Z,4.30
2018-11-21T22:55:13.961Z,4.30
2018-11-21T22:57:43.809Z,4.30
2018-11-21T23:00:41.907Z,4.30
2018-11-21T23:03:11.256Z,4.30
2018-11-21T23:05:40.491Z,4.30
2018-11-21T23:08:09.137Z,4.30
2018-11-21T23:10:37.969Z,4.30
2018-11-21T23:13:06.531Z,4.30
2018-11-21T23:15:35.421Z,4.30
2018-11-21T23:18:03.944Z,4.30
2018-11-21T23:20:33.357Z,4.30
2018-11-21T23:23:01.888Z,4.30
2018-11-21T23:25:30.788Z,4.40
2018-11-21T23:27:59.276Z,4.40
2018-11-21T23:30:28.171Z,4.30
2018-11-21T23:32:57.453Z,4.30
2018-11-21T23:35:26.109Z,4.30
2018-11-21T23:37:54.679Z,4.30
2018-11-21T23:40:23.396Z,4.30
2018-11-21T23:42:52.196Z,4.30
2018-11-21T23:45:21.714Z,4.30
2018-11-21T23:47:50.890Z,4.30
2018-11-21T23:50:20.095Z,4.30
2018-11-21T23:52:48.676Z,4.20
2018-11-21T23:55:19.411Z,4.20
2018-11-21T23:57:47.969Z,4.20
